Time;durP1;ratioP1;P1;durP2;ratioP2;P2;SDS_P1;SDS_P2;PMS_P1;PMS_P2;Temp;Humidity;BMP_temperature;BMP_pressure;BME280_temperature;BME280_humidity;BME280_pressure;Samples;Min_cycle;Max_cycle;Signal;HPM_P1;HPM_P2
2023/04/05 00:00:33;;;;;;;4.72;1.42;;;-1.20;99.90;;;;;;4890720;29;20060;-63
2023/04/05 00:03:00;;;;;;;2.28;0.93;;;-1.20;99.90;;;;;;4890400;29;20060;-64
2023/04/05 00:05:30;;;;;;;6.15;1.50;;;-1.10;99.90;;;;;;4891398;29;20083;-64
2023/04/05 00:07:59;;;;;;;3.63;1.58;;;-1.20;99.90;;;;;;4890952;29;20385;-64
2023/04/05 00:10:27;;;;;;;3.75;1.23;;;-1.10;99.90;;;;;;4876749;29;20052;-61
2023/04/05 00:12:54;;;;;;;3.35;1.45;;;-1.10;99.90;;;;;;4891965;29;20060;-67
2023/04/05 00:15:21;;;;;;;2.75;1.80;;;-1.20;99.90;;;;;;4891259;29;20644;-66
2023/04/05 00:17:49;;;;;;;2.60;1.02;;;-1.20;99.90;;;;;;4888625;29;20049;-62
2023/04/05 00:20:16;;;;;;;3.20;1.30;;;-1.20;99.90;;;;;;4892983;29;20055;-65
2023/04/05 00:22:43;;;;;;;3.58;1.45;;;-1.20;99.90;;;;;;4888111;29;20056;-64
2023/04/05 00:25:11;;;;;;;2.90;1.48;;;-1.20;99.90;;;;;;4890799;29;20112;-64
2023/04/05 00:27:38;;;;;;;2.35;1.42;;;-1.20;99.90;;;;;;4889519;29;20131;-69
2023/04/05 00:30:06;;;;;;;5.57;1.73;;;-1.20;99.90;;;;;;4891720;29;20132;-64
2023/04/05 00:32:33;;;;;;;3.72;1.52;;;-1.20;99.90;;;;;;4885324;29;20055;-62
2023/04/05 00:35:00;;;;;;;4.55;1.17;;;-1.20;99.90;;;;;;4884710;29;20118;-64
2023/04/05 00:37:27;;;;;;;1.05;0.98;;;-1.20;99.90;;;;;;4887882;29;20593;-63
2023/04/05 00:39:56;;;;;;;1.65;1.05;;;-1.20;99.90;;;;;;4889148;29;20139;-63
2023/04/05 00:42:23;;;;;;;4.38;1.25;;;-1.20;99.90;;;;;;4891199;29;20152;-67
2023/04/05 00:44:49;;;;;;;6.30;1.48;;;-1.20;99.90;;;;;;4889159;29;20725;-67
2023/04/05 00:47:16;;;;;;;1.70;1.35;;;-1.20;99.90;;;;;;4889361;29;20774;-63
2023/04/05 00:49:44;;;;;;;2.45;1.70;;;-1.20;99.90;;;;;;4889356;29;20067;-68
2023/04/05 00:52:11;;;;;;;3.88;1.48;;;-1.20;99.90;;;;;;4893786;29;20053;-62
2023/04/05 00:54:38;;;;;;;2.45;1.17;;;-1.20;99.90;;;;;;4878456;29;20050;-63
2023/04/05 00:57:06;;;;;;;2.70;0.85;;;-1.20;99.90;;;;;;4894235;29;20048;-63
2023/04/05 00:59:33;;;;;;;2.40;1.33;;;-1.20;99.90;;;;;;4888924;29;20144;-63
2023/04/05 01:02:06;;;;;;;5.45;1.70;;;-1.10;99.90;;;;;;4890887;29;20048;-62
2023/04/05 01:04:35;;;;;;;2.58;1.10;;;-1.20;99.90;;;;;;4890868;29;20151;-65
2023/04/05 01:07:22;;;;;;;5.40;1.45;;;-1.20;99.90;;;;;;4889177;29;20041;-64
2023/04/05 01:09:54;;;;;;;3.20;1.40;;;-1.10;99.90;;;;;;4888229;29;20048;-64
2023/04/05 01:12:26;;;;;;;1.55;1.20;;;-1.10;99.90;;;;;;4886073;29;20131;-63
2023/04/05 01:14:54;;;;;;;6.07;1.30;;;-1.00;99.90;;;;;;4890574;29;20064;-63
2023/04/05 01:17:26;;;;;;;7.10;1.17;;;-1.00;99.90;;;;;;4892190;29;20041;-63
2023/04/05 01:20:07;;;;;;;3.58;1.23;;;-1.00;99.90;;;;;;4886289;29;20064;-68
2023/04/05 01:22:51;;;;;;;7.47;1.13;;;-0.90;99.90;;;;;;4870012;29;20112;-65
2023/04/05 01:25:21;;;;;;;2.00;0.80;;;-0.80;99.90;;;;;;4891322;29;20068;-62
2023/04/05 01:27:57;;;;;;;4.00;1.50;;;-0.70;99.90;;;;;;4887024;29;20116;-64
2023/04/05 01:30:57;;;;;;;5.72;2.55;;;-0.60;99.90;;;;;;4888786;29;20049;-63
2023/04/05 01:33:43;;;;;;;3.03;1.08;;;-0.60;99.90;;;;;;4859863;29;20052;-64
2023/04/05 01:36:26;;;;;;;5.88;1.30;;;-0.50;99.90;;;;;;4889466;29;20052;-62
2023/04/05 01:38:54;;;;;;;2.40;1.10;;;-0.40;99.90;;;;;;4886044;29;20517;-63
2023/04/05 01:41:22;;;;;;;3.10;1.30;;;-0.30;99.90;;;;;;4889529;29;20068;-64
2023/04/05 01:43:49;;;;;;;3.10;0.88;;;-0.30;99.90;;;;;;4887111;29;20056;-69
2023/04/05 01:46:16;;;;;;;2.15;0.93;;;-0.20;99.90;;;;;;4887771;29;20127;-63
2023/04/05 01:48:42;;;;;;;4.63;1.35;;;-0.20;99.90;;;;;;4888670;29;20055;-63
2023/04/05 01:51:09;;;;;;;5.50;1.45;;;-0.10;99.90;;;;;;4870413;29;20049;-62
2023/04/05 01:53:37;;;;;;;4.57;1.63;;;-0.10;99.90;;;;;;4885038;29;20060;-65
2023/04/05 01:56:05;;;;;;;2.15;0.93;;;-0.10;99.90;;;;;;4884004;29;20705;-64
2023/04/05 01:58:35;;;;;;;3.38;1.88;;;0.00;99.90;;;;;;4889760;29;20052;-64
2023/04/05 02:01:02;;;;;;;1.35;1.00;;;0.00;99.90;;;;;;4885809;29;20041;-62
2023/04/05 02:03:29;;;;;;;4.13;1.20;;;0.00;99.90;;;;;;4889279;29;20124;-67
2023/04/05 02:05:57;;;;;;;2.92;1.38;;;0.00;99.90;;;;;;4880614;29;20065;-64
2023/04/05 02:08:24;;;;;;;2.20;1.30;;;0.00;99.90;;;;;;4852256;29;20077;-63
2023/04/05 02:10:52;;;;;;;7.20;1.33;;;0.10;99.90;;;;;;4847689;29;20049;-69
2023/04/05 02:13:21;;;;;;;1.92;1.00;;;0.10;99.90;;;;;;4847998;29;20158;-64
2023/04/05 02:15:49;;;;;;;3.35;1.10;;;0.20;99.90;;;;;;4852306;29;20053;-67
2023/04/05 02:18:21;;;;;;;2.13;1.30;;;0.20;99.90;;;;;;4850020;29;20080;-66
2023/04/05 02:20:50;;;;;;;1.55;1.13;;;0.20;99.90;;;;;;4849878;29;20046;-67
2023/04/05 02:23:18;;;;;;;2.17;1.10;;;0.20;99.90;;;;;;4849885;29;20073;-69
2023/04/05 02:25:45;;;;;;;2.95;1.00;;;0.20;99.90;;;;;;4847818;29;20429;-63
2023/04/05 02:28:12;;;;;;;9.40;1.15;;;0.30;99.90;;;;;;4850844;29;20424;-69
2023/04/05 02:30:39;;;;;;;5.72;1.85;;;0.30;99.90;;;;;;4850598;29;20045;-68
2023/04/05 02:33:09;;;;;;;4.32;1.52;;;0.30;99.90;;;;;;4862272;29;20071;-62
2023/04/05 02:35:36;;;;;;;4.70;1.02;;;0.30;99.90;;;;;;4849500;29;20085;-63
2023/04/05 02:38:04;;;;;;;1.13;0.80;;;0.30;99.90;;;;;;4852272;29;20057;-66
2023/04/05 02:40:33;;;;;;;2.92;0.70;;;0.40;99.90;;;;;;4852095;29;20049;-63
2023/04/05 02:43:01;;;;;;;3.88;1.17;;;0.40;99.90;;;;;;4848369;29;20104;-64
2023/04/05 02:45:28;;;;;;;9.55;1.50;;;0.50;99.90;;;;;;4853830;29;20057;-66
2023/04/05 02:47:57;;;;;;;6.83;2.43;;;0.50;99.90;;;;;;4861711;29;20488;-63
2023/04/05 02:50:25;;;;;;;2.35;1.23;;;0.50;99.90;;;;;;4852224;29;20073;-63
2023/04/05 02:52:52;;;;;;;1.40;0.98;;;0.50;99.90;;;;;;4848816;29;20156;-62
2023/04/05 02:55:20;;;;;;;13.07;2.45;;;0.50;99.90;;;;;;4848664;29;20719;-62
2023/04/05 02:57:47;;;;;;;4.03;1.17;;;0.50;99.90;;;;;;4851388;29;20064;-65
2023/04/05 03:00:24;;;;;;;6.03;0.98;;;0.60;99.90;;;;;;4853569;29;20062;-62
2023/04/05 03:02:52;;;;;;;3.17;1.00;;;0.60;99.90;;;;;;4857419;29;20061;-64
2023/04/05 03:05:21;;;;;;;2.15;0.98;;;0.60;99.90;;;;;;4870526;29;20065;-64
2023/04/05 03:07:51;;;;;;;2.90;1.50;;;0.60;99.90;;;;;;4868880;29;20069;-61
2023/04/05 03:10:25;;;;;;;4.75;0.90;;;0.60;99.90;;;;;;4887824;29;20394;-61
2023/04/05 03:12:57;;;;;;;3.20;1.00;;;0.60;99.90;;;;;;4874236;29;20049;-64
2023/04/05 03:15:26;;;;;;;3.17;1.80;;;0.70;99.90;;;;;;4886063;29;20060;-62
2023/04/05 03:17:56;;;;;;;1.70;1.10;;;0.70;99.90;;;;;;4886701;29;20053;-65
2023/04/05 03:20:23;;;;;;;6.47;1.92;;;0.70;99.90;;;;;;4885407;29;20615;-64
2023/04/05 03:22:54;;;;;;;;;;;0.80;99.90;;;;;;4872493;29;20136;-62
2023/04/05 03:25:24;;;;;;;7.40;1.30;;;0.70;99.90;;;;;;4883671;29;19943;-63
2023/04/05 03:27:51;;;;;;;3.85;2.33;;;0.70;99.90;;;;;;4882808;29;21035;-63
2023/04/05 03:30:19;;;;;;;6.72;1.73;;;0.70;99.90;;;;;;4886391;29;20571;-65
2023/04/05 03:32:56;;;;;;;2.92;1.30;;;0.70;99.90;;;;;;4885424;29;20144;-67
2023/04/05 03:35:33;;;;;;;9.02;3.40;;;0.70;99.90;;;;;;4885604;29;20049;-62
2023/04/05 03:38:01;;;;;;;2.22;1.02;;;0.70;99.90;;;;;;4882319;29;20169;-62
2023/04/05 03:40:29;;;;;;;4.45;1.80;;;0.80;99.90;;;;;;4870400;29;20049;-66
2023/04/05 03:42:56;;;;;;;3.10;1.27;;;0.80;99.90;;;;;;4886232;29;20100;-63
2023/04/05 03:45:23;;;;;;;4.68;1.33;;;0.80;99.90;;;;;;4870506;29;20069;-62
2023/04/05 03:47:51;;;;;;;8.05;2.00;;;0.80;99.90;;;;;;4870582;29;20139;-66
2023/04/05 03:50:18;;;;;;;4.43;1.42;;;0.80;99.90;;;;;;4875899;29;20052;-65
2023/04/05 03:52:45;;;;;;;5.07;1.73;;;0.80;99.90;;;;;;4879831;29;20072;-64
2023/04/05 03:55:15;;;;;;;5.20;2.20;;;0.80;99.90;;;;;;4872986;29;20721;-61
2023/04/05 03:57:44;;;;;;;4.75;1.27;;;0.90;99.90;;;;;;4870095;29;20452;-64
2023/04/05 04:00:23;;;;;;;4.93;1.77;;;0.90;99.90;;;;;;4883655;29;20111;-63
2023/04/05 04:03:11;;;;;;;3.65;1.50;;;0.90;99.90;;;;;;4868017;29;20049;-63
2023/04/05 04:05:41;;;;;;;5.50;2.95;;;0.90;99.90;;;;;;4868667;29;20056;-65
2023/04/05 04:08:09;;;;;;;7.00;2.17;;;0.90;99.90;;;;;;4885131;29;20060;-65
2023/04/05 04:10:37;;;;;;;8.68;3.65;;;0.90;99.90;;;;;;4875678;29;20088;-63
2023/04/05 04:13:12;;;;;;;2.42;1.30;;;0.90;99.90;;;;;;4889871;29;20049;-61
2023/04/05 04:15:40;;;;;;;6.70;2.45;;;0.90;99.90;;;;;;4889425;29;20068;-65
2023/04/05 04:18:28;;;;;;;4.15;1.35;;;1.00;99.90;;;;;;4860865;29;20083;-65
2023/04/05 04:21:09;;;;;;;4.82;1.45;;;1.00;99.90;;;;;;4873416;29;20053;-63
2023/04/05 04:24:02;;;;;;;2.75;1.48;;;1.00;99.90;;;;;;4887610;29;20049;-65
2023/04/05 04:26:46;;;;;;;13.93;3.22;;;1.00;99.90;;;;;;4887970;29;20048;-63
2023/04/05 04:29:45;;;;;;;10.25;2.08;;;1.00;99.90;;;;;;4884405;29;20053;-63
2023/04/05 04:32:50;;;;;;;6.38;1.13;;;1.00;99.90;;;;;;4889567;29;20071;-64
2023/04/05 04:35:28;;;;;;;6.22;1.85;;;1.00;99.90;;;;;;4891770;29;20044;-65
2023/04/05 04:38:25;;;;;;;6.22;1.38;;;1.10;99.90;;;;;;4884489;29;20641;-62
2023/04/05 04:41:25;;;;;;;7.35;1.67;;;1.10;99.90;;;;;;4873307;29;20052;-69
2023/04/05 04:44:02;;;;;;;5.30;2.22;;;1.10;99.90;;;;;;4885656;29;20053;-62
2023/04/05 04:46:53;;;;;;;2.58;1.45;;;1.20;99.90;;;;;;4880525;29;20052;-62
2023/04/05 04:49:43;;;;;;;8.65;2.15;;;1.20;99.90;;;;;;4884821;29;20053;-65
2023/04/05 04:52:10;;;;;;;7.25;2.00;;;1.20;99.90;;;;;;4888027;29;22187;-62
2023/04/05 04:54:41;;;;;;;4.13;1.52;;;1.20;99.90;;;;;;4888425;29;20075;-62
2023/04/05 04:57:08;;;;;;;12.82;2.17;;;1.30;99.90;;;;;;4891827;29;20048;-63
2023/04/05 04:59:35;;;;;;;7.88;2.45;;;1.30;99.90;;;;;;4888288;29;20061;-64
2023/04/05 05:02:04;;;;;;;3.28;1.83;;;1.40;99.90;;;;;;4880378;29;20044;-60
2023/04/05 05:04:33;;;;;;;10.68;2.20;;;1.40;99.90;;;;;;4889200;29;20477;-61
2023/04/05 05:07:00;;;;;;;8.40;2.40;;;1.50;99.90;;;;;;4888727;29;20044;-63
2023/04/05 05:09:27;;;;;;;7.97;3.05;;;1.50;99.90;;;;;;4890162;29;20057;-67
2023/04/05 05:11:58;;;;;;;11.68;2.78;;;1.50;99.90;;;;;;4877904;29;20077;-63
2023/04/05 05:14:25;;;;;;;12.70;1.75;;;1.50;99.90;;;;;;4870327;29;20475;-61
2023/04/05 05:16:53;;;;;;;7.45;1.58;;;1.60;99.90;;;;;;4884709;29;20048;-62
2023/04/05 05:19:20;;;;;;;3.72;1.65;;;1.60;99.90;;;;;;4868531;29;20139;-62
2023/04/05 05:21:52;;;;;;;9.13;1.70;;;1.60;99.90;;;;;;4885200;29;20135;-62
2023/04/05 05:24:19;;;;;;;9.00;2.75;;;1.60;99.90;;;;;;4889445;29;20080;-63
2023/04/05 05:26:46;;;;;;;3.35;1.50;;;1.50;99.90;;;;;;4890573;29;20489;-62
2023/04/05 05:29:13;;;;;;;13.63;2.05;;;1.60;99.90;;;;;;4889657;29;20052;-64
2023/04/05 05:31:43;;;;;;;10.80;1.23;;;1.60;99.90;;;;;;4884470;29;20373;-64
2023/04/05 05:34:10;;;;;;;9.95;2.45;;;1.60;99.90;;;;;;4886194;29;20048;-61
2023/04/05 05:36:40;;;;;;;13.10;1.98;;;1.60;99.90;;;;;;4886556;29;20471;-62
2023/04/05 05:39:07;;;;;;;17.52;2.40;;;1.60;99.90;;;;;;4891562;29;20048;-62
2023/04/05 05:41:35;;;;;;;11.55;1.83;;;1.60;99.90;;;;;;4886832;29;20064;-63
2023/04/05 05:44:02;;;;;;;21.48;3.65;;;1.60;99.90;;;;;;4888410;29;20049;-62
2023/04/05 05:46:28;;;;;;;16.42;2.50;;;1.70;99.90;;;;;;4888040;29;20064;-62
2023/04/05 05:48:55;;;;;;;10.02;3.05;;;1.70;99.90;;;;;;4883489;29;20076;-65
2023/04/05 05:51:22;;;;;;;7.90;1.63;;;1.80;99.90;;;;;;4888019;29;20064;-62
2023/04/05 05:53:50;;;;;;;4.57;1.92;;;1.80;99.90;;;;;;4883336;29;20056;-70
2023/04/05 05:56:17;;;;;;;9.38;2.20;;;1.90;99.90;;;;;;4889416;29;20052;-65
2023/04/05 05:58:44;;;;;;;22.80;5.07;;;1.80;99.90;;;;;;4887588;29;20472;-63
2023/04/05 06:01:13;;;;;;;12.38;3.08;;;1.90;99.90;;;;;;4886519;29;20048;-64
2023/04/05 06:03:40;;;;;;;16.58;2.42;;;1.80;99.90;;;;;;4885285;29;20490;-63
2023/04/05 06:06:09;;;;;;;5.82;2.30;;;1.90;99.90;;;;;;4884941;29;20084;-64
2023/04/05 06:08:37;;;;;;;3.08;0.90;;;1.90;99.90;;;;;;4885692;29;20157;-61
2023/04/05 06:11:04;;;;;;;9.52;1.58;;;1.90;99.90;;;;;;4887097;29;20055;-64
2023/04/05 06:13:31;;;;;;;11.07;2.75;;;1.90;99.90;;;;;;4885939;29;20163;-68
2023/04/05 06:16:00;;;;;;;11.30;1.63;;;1.90;99.90;;;;;;4882179;29;20063;-61
2023/04/05 06:18:27;;;;;;;7.22;2.90;;;2.00;99.90;;;;;;4886632;29;20060;-62
2023/04/05 06:20:54;;;;;;;7.22;1.90;;;2.00;99.90;;;;;;4885403;29;20051;-64
2023/04/05 06:23:21;;;;;;;7.25;2.72;;;2.00;99.90;;;;;;4884572;29;20044;-63
2023/04/05 06:25:48;;;;;;;5.30;1.75;;;2.10;99.90;;;;;;4884771;29;20054;-63
2023/04/05 06:28:15;;;;;;;3.40;2.05;;;2.10;99.90;;;;;;4887703;29;20068;-65
2023/04/05 06:30:42;;;;;;;11.25;1.88;;;2.10;99.90;;;;;;4887074;29;20052;-63
2023/04/05 06:33:09;;;;;;;10.63;2.03;;;2.10;99.90;;;;;;4888518;29;20135;-61
2023/04/05 06:35:36;;;;;;;8.93;3.08;;;2.20;99.90;;;;;;4887420;29;20950;-62
2023/04/05 06:38:02;;;;;;;6.70;2.33;;;2.20;99.90;;;;;;4884488;29;20064;-65
2023/04/05 06:40:29;;;;;;;8.23;1.60;;;2.20;99.90;;;;;;4888463;29;20140;-66
2023/04/05 06:42:56;;;;;;;12.75;2.00;;;2.20;99.90;;;;;;4885893;29;20056;-64
2023/04/05 06:45:27;;;;;;;15.98;3.20;;;2.20;99.90;;;;;;4874213;29;20053;-63
2023/04/05 06:47:54;;;;;;;8.00;2.60;;;2.20;99.90;;;;;;4879490;29;20084;-65
2023/04/05 06:50:21;;;;;;;8.32;3.10;;;2.20;99.90;;;;;;4889658;29;20491;-62
2023/04/05 06:52:48;;;;;;;13.57;3.60;;;2.20;99.90;;;;;;4885697;29;20057;-68
2023/04/05 06:55:15;;;;;;;8.65;2.38;;;2.30;99.90;;;;;;4887240;29;20044;-66
2023/04/05 06:57:42;;;;;;;6.78;2.10;;;2.30;99.90;;;;;;4883102;29;20048;-62
2023/04/05 07:00:12;;;;;;;11.18;2.63;;;2.30;99.90;;;;;;4886526;29;20147;-61
2023/04/05 07:02:39;;;;;;;28.88;3.17;;;2.40;99.90;;;;;;4887006;29;20079;-61
2023/04/05 07:05:07;;;;;;;7.63;2.72;;;2.40;99.90;;;;;;4885104;29;20562;-66
2023/04/05 07:07:43;;;;;;;16.35;2.40;;;2.40;99.90;;;;;;4883031;29;20048;-63
2023/04/05 07:10:10;;;;;;;9.38;1.48;;;2.40;99.90;;;;;;4884132;29;20052;-65
2023/04/05 07:12:38;;;;;;;10.77;3.70;;;2.40;99.90;;;;;;4886639;29;20525;-64
2023/04/05 07:15:06;;;;;;;8.30;2.42;;;2.30;99.90;;;;;;4886052;29;20100;-61
2023/04/05 07:17:33;;;;;;;8.35;2.15;;;2.30;99.90;;;;;;4888206;29;20052;-63
2023/04/05 07:20:00;;;;;;;9.38;2.72;;;2.30;99.90;;;;;;4884844;29;20045;-64
2023/04/05 07:22:26;;;;;;;3.15;1.27;;;2.30;99.90;;;;;;4883514;29;20139;-64
2023/04/05 07:24:54;;;;;;;3.83;1.65;;;2.20;99.90;;;;;;4885194;29;20139;-61
2023/04/05 07:27:21;;;;;;;4.05;1.60;;;2.20;99.90;;;;;;4886902;29;20408;-63
2023/04/05 07:29:48;;;;;;;4.53;1.02;;;2.10;99.90;;;;;;4885651;29;20052;-63
2023/04/05 07:32:15;;;;;;;5.53;1.55;;;2.10;99.90;;;;;;4883971;29;20041;-63
2023/04/05 07:34:42;;;;;;;4.05;1.00;;;2.10;99.90;;;;;;4885552;29;20052;-63
2023/04/05 07:37:08;;;;;;;6.20;1.25;;;2.20;99.90;;;;;;4885446;29;20060;-65
2023/04/05 07:39:35;;;;;;;9.38;1.45;;;2.20;99.90;;;;;;4884042;29;20146;-66
2023/04/05 07:42:02;;;;;;;4.78;1.17;;;2.10;99.90;;;;;;4883609;29;20484;-63
2023/04/05 07:44:29;;;;;;;5.53;1.30;;;2.10;99.90;;;;;;4889576;29;20088;-64
2023/04/05 07:46:56;;;;;;;11.07;1.92;;;2.10;99.90;;;;;;4886232;29;20061;-66
2023/04/05 07:49:24;;;;;;;5.57;1.90;;;2.20;99.90;;;;;;4890330;29;20448;-62
2023/04/05 07:51:55;;;;;;;3.95;1.42;;;2.20;99.90;;;;;;4887508;29;21577;-66
2023/04/05 07:54:23;;;;;;;3.70;1.20;;;2.20;99.90;;;;;;4888078;29;20111;-63
2023/04/05 07:56:50;;;;;;;4.78;1.55;;;2.20;99.90;;;;;;4889713;29;20120;-64
2023/04/05 07:59:17;;;;;;;2.78;1.52;;;2.20;99.90;;;;;;4887489;29;20079;-69
2023/04/05 08:01:45;;;;;;;3.85;2.88;;;2.20;99.90;;;;;;4886311;29;20909;-62
2023/04/05 08:04:11;;;;;;;6.40;0.82;;;2.20;99.90;;;;;;4884752;29;20131;-62
2023/04/05 08:06:38;;;;;;;7.75;1.33;;;2.10;99.90;;;;;;4886506;29;20636;-63
2023/04/05 08:09:07;;;;;;;4.32;1.30;;;2.00;99.90;;;;;;4887510;29;20051;-62
2023/04/05 08:11:34;;;;;;;9.98;1.58;;;2.10;99.90;;;;;;4886000;29;20080;-63
2023/04/05 08:14:01;;;;;;;5.75;1.58;;;2.00;99.90;;;;;;4889324;29;20041;-62
2023/04/05 08:16:28;;;;;;;5.90;1.77;;;2.00;99.90;;;;;;4890900;29;20049;-62
2023/04/05 08:18:55;;;;;;;4.53;1.45;;;2.00;99.90;;;;;;4889247;29;20163;-65
2023/04/05 08:21:22;;;;;;;12.18;2.10;;;2.00;99.90;;;;;;4889707;29;20056;-62
2023/04/05 08:23:49;;;;;;;9.65;3.30;;;2.10;99.90;;;;;;4886984;29;20599;-63
2023/04/05 08:26:16;;;;;;;8.73;1.95;;;2.10;99.90;;;;;;4888159;29;20558;-66
2023/04/05 08:28:43;;;;;;;5.70;1.77;;;2.00;99.90;;;;;;4888883;29;20770;-62
2023/04/05 08:31:11;;;;;;;6.03;1.77;;;1.90;99.90;;;;;;4888773;29;20053;-62
2023/04/05 08:33:39;;;;;;;3.95;1.55;;;1.90;99.90;;;;;;4886775;29;20052;-63
2023/04/05 08:36:08;;;;;;;3.22;2.13;;;1.90;99.90;;;;;;4884715;29;20049;-68
2023/04/05 08:38:35;;;;;;;5.82;1.92;;;1.90;99.90;;;;;;4886597;29;20551;-62
2023/04/05 08:41:18;;;;;;;15.07;2.53;;;1.80;99.90;;;;;;4889380;29;20063;-61
2023/04/05 08:43:54;;;;;;;8.90;1.88;;;1.80;99.90;;;;;;4886543;29;20183;-62
2023/04/05 08:46:22;;;;;;;3.10;1.20;;;1.80;99.90;;;;;;4889177;29;20084;-64
2023/04/05 08:48:50;;;;;;;4.45;1.30;;;1.70;99.90;;;;;;4892554;29;20218;-62
2023/04/05 08:51:19;;;;;;;2.10;1.30;;;1.70;99.90;;;;;;4888523;29;20096;-64
2023/04/05 08:53:47;;;;;;;13.40;1.43;;;1.70;99.90;;;;;;4886284;29;20140;-63
2023/04/05 08:56:17;;;;;;;6.10;2.55;;;1.70;99.90;;;;;;4889644;29;20287;-62
2023/04/05 08:58:48;;;;;;;;;;;1.70;99.90;;;;;;4890162;29;20415;-61
2023/04/05 09:01:16;;;;;;;2.30;1.05;;;1.70;99.90;;;;;;4890291;29;19923;-61
2023/04/05 09:03:44;;;;;;;3.50;1.27;;;1.70;99.90;;;;;;4886921;29;20053;-63
2023/04/05 09:06:12;;;;;;;5.97;1.33;;;1.70;99.90;;;;;;4891367;29;20059;-61
2023/04/05 09:08:39;;;;;;;6.60;2.35;;;1.80;99.90;;;;;;4888832;29;20055;-62
2023/04/05 09:11:06;;;;;;;5.00;1.58;;;1.90;99.90;;;;;;4887578;29;20044;-62
2023/04/05 09:13:33;;;;;;;3.05;1.15;;;1.80;99.90;;;;;;4883589;29;20062;-62
2023/04/05 09:16:00;;;;;;;4.07;1.77;;;1.80;99.90;;;;;;4888551;29;20167;-64
2023/04/05 09:18:27;;;;;;;3.63;1.33;;;1.70;99.90;;;;;;4889621;29;20060;-63
2023/04/05 09:21:04;;;;;;;1.48;1.25;;;1.60;99.90;;;;;;4887332;29;20140;-63
2023/04/05 09:23:33;;;;;;;3.63;2.00;;;1.50;99.90;;;;;;4886543;29;20055;-63
2023/04/05 09:26:01;;;;;;;3.17;1.55;;;1.40;99.90;;;;;;4888525;29;20529;-64
2023/04/05 09:28:43;;;;;;;7.10;1.77;;;1.40;99.90;;;;;;4867990;29;20127;-62
2023/04/05 09:31:32;;;;;;;6.38;2.30;;;1.30;99.90;;;;;;4886350;29;20356;-62
2023/04/05 09:34:08;;;;;;;2.88;1.30;;;1.30;99.90;;;;;;4884357;29;20064;-62
2023/04/05 09:36:35;;;;;;;9.48;2.13;;;1.20;99.90;;;;;;4889978;29;20503;-61
2023/04/05 09:39:07;;;;;;;3.30;2.10;;;1.20;99.90;;;;;;4885451;29;20048;-63
2023/04/05 09:41:35;;;;;;;5.43;2.03;;;1.10;99.90;;;;;;4885210;29;20504;-62
2023/04/05 09:44:02;;;;;;;4.57;2.75;;;1.10;99.90;;;;;;4887882;29;20048;-63
2023/04/05 09:46:35;;;;;;;4.07;2.80;;;1.10;99.90;;;;;;4888923;29;20709;-62
2023/04/05 09:49:05;;;;;;;7.90;2.50;;;1.10;99.90;;;;;;4889103;29;20052;-63
2023/04/05 09:51:34;;;;;;;2.90;2.25;;;1.10;99.90;;;;;;4888112;29;20120;-63
2023/04/05 09:54:07;;;;;;;2.42;1.73;;;1.10;99.90;;;;;;4882121;29;20180;-62
2023/04/05 09:56:39;;;;;;;3.17;1.90;;;1.10;99.90;;;;;;4889162;29;20066;-63
2023/04/05 09:59:09;;;;;;;5.53;2.90;;;1.10;99.90;;;;;;4888129;29;20104;-62
2023/04/05 10:01:50;;;;;;;;;;;1.10;99.90;;;;;;4887830;29;20059;-62
2023/04/05 10:04:20;;;;;;;2.72;1.77;;;1.20;99.90;;;;;;4885869;29;19935;-64
2023/04/05 10:06:47;;;;;;;4.75;2.28;;;1.20;99.90;;;;;;4891363;29;20056;-62
2023/04/05 10:09:16;;;;;;;6.70;2.05;;;1.20;99.90;;;;;;4885937;29;20402;-62
2023/04/05 10:11:44;;;;;;;4.15;1.95;;;1.20;99.90;;;;;;4886660;29;20068;-62
2023/04/05 10:14:11;;;;;;;6.03;2.83;;;1.20;99.90;;;;;;4888215;29;20795;-62
2023/04/05 10:17:00;;;;;;;4.65;1.98;;;1.20;99.90;;;;;;4887111;29;20134;-66
2023/04/05 10:20:01;;;;;;;4.63;1.92;;;1.20;99.90;;;;;;4889240;29;20585;-62
2023/04/05 10:22:47;;;;;;;3.58;2.40;;;1.30;99.90;;;;;;4886202;29;21204;-63
2023/04/05 10:25:27;;;;;;;3.65;2.03;;;1.30;99.90;;;;;;4884824;29;20646;-62
2023/04/05 10:28:10;;;;;;;7.18;2.45;;;1.40;99.90;;;;;;4884796;29;20056;-63
2023/04/05 10:30:45;;;;;;;3.30;1.70;;;1.40;99.90;;;;;;4887834;29;20404;-62
2023/04/05 10:33:25;;;;;;;3.72;1.40;;;1.40;99.90;;;;;;4887952;29;20145;-62
2023/04/05 10:36:48;;;;;;;4.00;2.53;;;1.40;99.90;;;;;;4886052;29;20533;-62
2023/04/05 10:39:28;;;;;;;4.32;1.75;;;1.50;99.90;;;;;;4850555;29;20050;-62
2023/04/05 10:42:19;;;;;;;8.23;2.75;;;1.60;99.90;;;;;;4844610;29;20060;-63
2023/04/05 10:44:52;;;;;;;3.03;1.55;;;1.60;99.90;;;;;;4883179;29;20048;-63
2023/04/05 10:47:21;;;;;;;3.03;1.75;;;1.50;99.90;;;;;;4870934;29;20044;-65
2023/04/05 10:49:55;;;;;;;6.70;2.53;;;1.50;99.90;;;;;;4889463;29;20112;-64
2023/04/05 10:52:23;;;;;;;1.63;1.52;;;1.60;99.90;;;;;;4884989;29;20056;-66
2023/04/05 10:54:51;;;;;;;3.75;1.85;;;1.60;99.90;;;;;;4888142;29;20045;-62
2023/04/05 10:57:19;;;;;;;5.00;1.83;;;1.70;99.90;;;;;;4887711;29;20725;-63
2023/04/05 10:59:47;;;;;;;2.80;1.67;;;1.70;99.90;;;;;;4886059;29;20049;-65
2023/04/05 11:02:15;;;;;;;2.85;1.98;;;1.70;99.90;;;;;;4885044;29;20044;-64
2023/04/05 11:04:42;;;;;;;4.00;1.90;;;1.70;99.90;;;;;;4886502;29;20673;-63
2023/04/05 11:07:13;;;;;;;2.22;1.70;;;1.70;99.90;;;;;;4883386;29;20072;-62
2023/04/05 11:10:02;;;;;;;2.10;1.90;;;1.80;99.90;;;;;;4886609;29;20480;-63
2023/04/05 11:12:44;;;;;;;1.70;1.48;;;1.90;99.90;;;;;;4885737;29;20041;-63
2023/04/05 11:15:26;;;;;;;2.70;1.48;;;1.90;99.90;;;;;;4887907;29;20414;-64
2023/04/05 11:18:03;;;;;;;3.83;2.22;;;1.80;99.90;;;;;;4882480;29;20370;-62
2023/04/05 11:20:42;;;;;;;1.65;1.55;;;1.80;99.90;;;;;;4893818;29;20294;-65
2023/04/05 11:23:11;;;;;;;3.85;1.30;;;2.00;99.90;;;;;;4888510;29;20147;-62
2023/04/05 11:25:40;;;;;;;2.28;1.27;;;2.00;99.90;;;;;;4889851;29;20057;-62
2023/04/05 11:28:10;;;;;;;2.20;1.40;;;2.20;99.90;;;;;;4889934;29;20083;-62
2023/04/05 11:30:48;;;;;;;3.08;1.20;;;2.30;99.90;;;;;;4888840;29;20089;-62
2023/04/05 11:33:48;;;;;;;1.48;1.10;;;2.40;99.90;;;;;;4887525;29;20042;-66
2023/04/05 11:36:35;;;;;;;0.70;0.70;;;2.40;99.90;;;;;;4889873;29;20060;-62
2023/04/05 11:39:17;;;;;;;3.53;2.35;;;2.50;99.90;;;;;;4889562;29;20488;-63
2023/04/05 11:42:00;;;;;;;2.70;0.68;;;2.60;99.90;;;;;;4886272;29;20068;-64
2023/04/05 11:44:30;;;;;;;1.27;0.90;;;2.70;99.90;;;;;;4889282;29;20140;-62
2023/04/05 11:46:57;;;;;;;;;;;2.90;99.90;;;;;;4889786;29;20171;-62
2023/04/05 11:49:24;;;;;;;1.23;0.80;;;3.10;99.90;;;;;;4888297;29;19927;-65
2023/04/05 11:51:52;;;;;;;3.67;1.13;;;3.20;99.90;;;;;;4891614;29;20070;-63
2023/04/05 11:54:32;;;;;;;1.67;0.95;;;3.30;99.90;;;;;;4874512;29;20396;-63
2023/04/05 11:57:00;;;;;;;0.88;0.75;;;3.30;99.90;;;;;;4891482;29;20109;-63
2023/04/05 11:59:30;;;;;;;1.90;1.52;;;3.20;99.90;;;;;;4890787;29;20154;-66
2023/04/05 12:02:02;;;;;;;2.13;1.13;;;3.40;99.90;;;;;;4889185;29;20430;-70
2023/04/05 12:04:29;;;;;;;1.02;0.88;;;3.40;99.90;;;;;;4886483;29;20143;-64
2023/04/05 12:07:16;;;;;;;1.90;1.15;;;3.40;99.90;;;;;;4888389;29;20055;-65
2023/04/05 12:10:07;;;;;;;1.30;1.20;;;3.30;99.90;;;;;;4885495;29;20139;-62
2023/04/05 12:12:36;;;;;;;1.75;0.77;;;3.30;99.90;;;;;;4890400;29;20386;-67
2023/04/05 12:15:07;;;;;;;1.88;1.15;;;3.30;99.90;;;;;;4888186;29;20052;-65
2023/04/05 12:17:41;;;;;;;1.08;0.98;;;3.20;99.90;;;;;;4886946;29;20052;-63
2023/04/05 12:20:10;;;;;;;1.38;0.75;;;3.10;99.90;;;;;;4888302;29;20048;-62
2023/04/05 12:22:38;;;;;;;1.83;1.05;;;2.90;99.90;;;;;;4885341;29;20063;-65
2023/04/05 12:25:05;;;;;;;0.73;0.68;;;2.80;99.90;;;;;;4887871;29;20550;-62
2023/04/05 12:27:32;;;;;;;0.60;0.60;;;2.70;99.90;;;;;;4890151;29;20060;-62
2023/04/05 12:30:05;;;;;;;1.00;0.90;;;2.60;99.90;;;;;;4886787;29;20049;-62
2023/04/05 12:32:53;;;;;;;0.77;0.75;;;2.60;99.90;;;;;;4887835;29;20056;-66
2023/04/05 12:35:31;;;;;;;0.70;0.55;;;2.70;99.90;;;;;;4890125;29;20551;-63
2023/04/05 12:38:04;;;;;;;1.27;1.05;;;2.80;99.90;;;;;;4883026;29;20127;-65
2023/04/05 12:40:33;;;;;;;0.65;0.65;;;2.90;99.90;;;;;;4889823;29;20056;-63
2023/04/05 12:43:04;;;;;;;1.40;0.98;;;3.10;99.90;;;;;;4889721;29;20048;-63
2023/04/05 12:45:41;;;;;;;1.98;1.10;;;3.10;99.90;;;;;;4889687;29;20056;-62
2023/04/05 12:48:11;;;;;;;1.55;1.10;;;3.10;99.90;;;;;;4887987;29;20391;-62
2023/04/05 12:50:43;;;;;;;1.15;0.75;;;3.10;99.90;;;;;;4889608;29;20147;-67
2023/04/05 12:53:19;;;;;;;1.30;1.00;;;3.10;99.90;;;;;;4886631;29;20045;-62
2023/04/05 12:55:51;;;;;;;1.13;0.85;;;3.10;99.90;;;;;;4886001;29;21421;-66
2023/04/05 12:58:21;;;;;;;1.27;1.17;;;3.20;99.90;;;;;;4892121;29;20056;-64
2023/04/05 13:00:48;;;;;;;2.17;1.15;;;3.20;99.90;;;;;;4891396;29;20063;-64
2023/04/05 13:03:18;;;;;;;1.35;1.10;;;3.10;99.90;;;;;;4885991;29;20135;-62
2023/04/05 13:05:48;;;;;;;1.20;0.82;;;3.00;99.90;;;;;;4888231;29;20499;-66
2023/04/05 13:08:17;;;;;;;1.85;1.40;;;3.00;99.90;;;;;;4889504;29;20066;-63
2023/04/05 13:10:48;;;;;;;4.10;1.38;;;3.00;99.90;;;;;;4887025;29;20140;-63
2023/04/05 13:13:16;;;;;;;1.65;1.05;;;3.10;99.90;;;;;;4886452;29;20052;-63
2023/04/05 13:15:44;;;;;;;3.67;1.23;;;3.10;99.90;;;;;;4887115;29;20087;-63